createdAt,value
2023-04-09T00:02:06.614Z,19.94
2023-04-09T00:04:36.489Z,20.12
2023-04-09T00:07:05.889Z,20.05
2023-04-09T00:09:35.207Z,19.84
2023-04-09T00:12:04.481Z,19.94
2023-04-09T00:14:33.991Z,20.10
2023-04-09T00:17:03.424Z,20.07
2023-04-09T00:19:34.554Z,19.98
2023-04-09T00:22:04.086Z,19.98
2023-04-09T00:24:35.786Z,19.98
2023-04-09T00:27:05.334Z,19.94
2023-04-09T00:29:34.559Z,19.95
2023-04-09T00:32:04.306Z,19.92
2023-04-09T00:34:33.845Z,19.86
2023-04-09T00:37:04.018Z,19.92
2023-04-09T00:39:33.472Z,19.92
2023-04-09T00:42:06.554Z,19.83
2023-04-09T00:44:35.872Z,19.99
2023-04-09T00:47:06.079Z,19.85
2023-04-09T00:49:35.548Z,19.82
2023-04-09T00:52:05.236Z,19.85
2023-04-09T00:54:34.975Z,19.86
2023-04-09T00:57:06.165Z,19.94
2023-04-09T00:59:36.938Z,19.94
2023-04-09T01:02:06.825Z,19.96
2023-04-09T01:04:38.311Z,19.97
2023-04-09T01:07:13.742Z,19.96
2023-04-09T01:09:53.488Z,20.01
2023-04-09T01:12:44.678Z,20.05
2023-04-09T01:15:20.644Z,20.09
2023-04-09T01:18:03.826Z,20.22
2023-04-09T01:20:42.868Z,20.23
2023-04-09T01:23:18.094Z,20.35
2023-04-09T01:26:05.029Z,20.40
2023-04-09T01:28:53.646Z,20.42
2023-04-09T01:31:33.518Z,20.51
2023-04-09T01:34:03.772Z,20.62
2023-04-09T01:36:35.488Z,20.72
2023-04-09T01:39:05.167Z,20.77
2023-04-09T01:41:36.960Z,20.87
2023-04-09T01:44:09.181Z,20.99
2023-04-09T01:46:40.910Z,21.02
2023-04-09T01:49:11.744Z,21.09
2023-04-09T01:51:41.527Z,21.26
2023-04-09T01:54:10.882Z,21.38
2023-04-09T01:56:48.608Z,21.54
2023-04-09T01:59:18.066Z,21.62
2023-04-09T02:01:54.504Z,21.78
2023-04-09T02:04:32.976Z,22.01
2023-04-09T02:07:12.836Z,22.15
2023-04-09T02:09:43.472Z,22.40
2023-04-09T02:12:16.069Z,22.71
2023-04-09T02:14:48.447Z,23.39
2023-04-09T02:17:18.114Z,24.49
2023-04-09T02:19:49.084Z,25.37
2023-04-09T02:22:19.474Z,26.10
2023-04-09T02:24:49.276Z,26.77
2023-04-09T02:27:18.809Z,27.29
2023-04-09T02:29:48.146Z,27.73
2023-04-09T02:32:17.565Z,28.04
2023-04-09T02:34:47.133Z,28.11
2023-04-09T02:37:17.358Z,28.26
2023-04-09T02:39:46.675Z,28.22
2023-04-09T02:42:15.885Z,28.13
2023-04-09T02:44:45.892Z,27.85
2023-04-09T02:47:16.681Z,27.72
2023-04-09T02:49:46.329Z,27.52
2023-04-09T02:52:15.414Z,27.27
2023-04-09T02:54:44.656Z,26.94
2023-04-09T02:57:14.078Z,26.74
2023-04-09T02:59:44.015Z,26.52
2023-04-09T03:02:14.471Z,26.40
2023-04-09T03:04:44.065Z,26.28
2023-04-09T03:07:13.347Z,26.03
2023-04-09T03:09:44.760Z,26.10
2023-04-09T03:12:14.086Z,26.09
2023-04-09T03:14:43.147Z,26.10
2023-04-09T03:17:12.754Z,26.15
2023-04-09T03:19:41.849Z,26.12
2023-04-09T03:22:11.737Z,26.16
2023-04-09T03:24:41.170Z,26.23
2023-04-09T03:27:10.430Z,26.38
2023-04-09T03:29:39.595Z,26.38
2023-04-09T03:32:09.425Z,26.30
2023-04-09T03:34:38.578Z,26.32
2023-04-09T03:37:08.534Z,26.33
2023-04-09T03:39:37.874Z,26.37
2023-04-09T03:42:06.935Z,26.44
2023-04-09T03:44:45.886Z,26.51
2023-04-09T03:47:20.285Z,26.46
2023-04-09T03:49:49.664Z,26.52
2023-04-09T03:52:26.497Z,26.59
2023-04-09T03:55:07.079Z,26.67
2023-04-09T03:57:36.937Z,26.67
2023-04-09T04:00:10.305Z,26.63
2023-04-09T04:02:59.950Z,26.62
2023-04-09T04:05:55.421Z,26.61
2023-04-09T04:08:24.851Z,26.73
2023-04-09T04:10:54.149Z,26.92
2023-04-09T04:13:23.746Z,26.89
2023-04-09T04:15:58.376Z,26.91
2023-04-09T04:18:27.807Z,26.94
2023-04-09T04:20:57.118Z,27.03
2023-04-09T04:23:26.815Z,27.02
2023-04-09T04:26:13.531Z,27.13
2023-04-09T04:28:43.778Z,27.37
2023-04-09T04:31:18.486Z,27.49
2023-04-09T04:33:48.151Z,27.63
2023-04-09T04:36:17.750Z,28.28
2023-04-09T04:38:50.750Z,29.05
2023-04-09T04:41:36.999Z,29.39
2023-04-09T04:44:21.425Z,30.33
2023-04-09T04:46:55.800Z,30.86
2023-04-09T04:49:25.190Z,31.20
2023-04-09T04:51:54.657Z,31.33
2023-04-09T04:54:24.140Z,31.43
2023-04-09T04:56:57.601Z,31.54
2023-04-09T04:59:43.344Z,32.01
2023-04-09T05:02:15.389Z,31.94
2023-04-09T05:05:07.793Z,32.63
2023-04-09T05:07:44.593Z,33.05
2023-04-09T05:10:13.980Z,32.70
2023-04-09T05:12:45.088Z,32.60
2023-04-09T05:15:21.308Z,32.67
2023-04-09T05:17:51.198Z,33.10
2023-04-09T05:20:21.117Z,32.79
2023-04-09T05:23:11.371Z,32.93
2023-04-09T05:25:49.744Z,32.93
2023-04-09T05:28:44.937Z,33.29
2023-04-09T05:31:19.189Z,33.05
2023-04-09T05:33:55.972Z,33.48
2023-04-09T05:36:35.324Z,33.75
2023-04-09T05:39:05.492Z,33.70
2023-04-09T05:41:34.810Z,33.71
2023-04-09T05:44:33.167Z,33.91
2023-04-09T05:47:09.252Z,33.79
2023-04-09T05:49:47.297Z,34.07
2023-04-09T05:52:19.060Z,34.14
2023-04-09T05:54:49.372Z,34.38
2023-04-09T05:57:23.771Z,33.94
2023-04-09T06:00:00.155Z,33.85
2023-04-09T06:02:30.224Z,33.99
2023-04-09T06:04:59.609Z,33.66
2023-04-09T06:07:29.045Z,33.83
2023-04-09T06:09:59.262Z,33.39
2023-04-09T06:12:30.025Z,33.32
2023-04-09T06:14:59.284Z,33.21
2023-04-09T06:17:31.202Z,32.95
2023-04-09T06:20:00.691Z,33.44
2023-04-09T06:22:29.839Z,33.52
2023-04-09T06:24:59.224Z,33.59
2023-04-09T06:27:28.900Z,33.57
2023-04-09T06:29:59.582Z,33.57
2023-04-09T06:32:35.522Z,33.87
2023-04-09T06:35:11.055Z,33.59
2023-04-09T06:37:40.568Z,33.35
2023-04-09T06:40:10.886Z,33.44
2023-04-09T06:42:41.119Z,32.97
2023-04-09T06:45:22.191Z,33.15
2023-04-09T06:47:51.631Z,33.26
2023-04-09T06:50:22.144Z,33.28
2023-04-09T06:52:52.321Z,32.98
2023-04-09T06:55:22.154Z,33.34
2023-04-09T06:57:53.110Z,33.28
2023-04-09T07:00:24.196Z,33.20
2023-04-09T07:02:54.985Z,33.42
2023-04-09T07:05:25.429Z,33.51
2023-04-09T07:07:54.894Z,33.62
2023-04-09T07:10:27.605Z,33.47
2023-04-09T07:12:56.907Z,33.25
2023-04-09T07:15:26.401Z,32.63
2023-04-09T07:17:55.718Z,32.80
2023-04-09T07:20:25.275Z,33.06
2023-04-09T07:22:55.203Z,33.03
2023-04-09T07:25:24.306Z,33.19
2023-04-09T07:27:53.665Z,33.26
2023-04-09T07:30:23.166Z,33.00
2023-04-09T07:32:52.808Z,33.12
2023-04-09T07:35:22.916Z,33.19
2023-04-09T07:37:53.016Z,33.26
2023-04-09T07:40:22.507Z,33.32
2023-04-09T07:42:52.019Z,33.11
2023-04-09T07:45:21.574Z,33.36
2023-04-09T07:47:51.775Z,33.38
2023-04-09T07:50:21.089Z,33.39
2023-04-09T07:52:50.529Z,33.00
2023-04-09T07:55:20.216Z,33.22
2023-04-09T07:57:49.783Z,33.33
2023-04-09T08:00:20.375Z,33.00
2023-04-09T08:02:49.981Z,32.88
2023-04-09T08:05:19.496Z,32.31
2023-04-09T08:07:49.367Z,32.33
2023-04-09T08:10:18.612Z,32.04
2023-04-09T08:12:50.572Z,31.97
2023-04-09T08:15:20.874Z,32.06
2023-04-09T08:17:51.082Z,32.13
2023-04-09T08:20:20.694Z,32.06
2023-04-09T08:22:51.524Z,32.01
2023-04-09T08:25:21.901Z,31.94
2023-04-09T08:27:51.685Z,31.97
2023-04-09T08:30:21.158Z,32.04
2023-04-09T08:32:51.218Z,32.00
2023-04-09T08:35:21.232Z,32.15
2023-04-09T08:37:51.059Z,32.22
2023-04-09T08:40:20.838Z,32.23
2023-04-09T08:42:58.084Z,32.14
2023-04-09T08:45:27.777Z,32.12
2023-04-09T08:48:00.912Z,32.11
2023-04-09T08:50:35.030Z,31.97
2023-04-09T08:53:07.345Z,31.95
2023-04-09T08:55:38.390Z,31.86
2023-04-09T08:58:14.212Z,31.60
2023-04-09T09:00:43.747Z,31.45
2023-04-09T09:03:14.440Z,31.54
2023-04-09T09:05:45.740Z,31.73
2023-04-09T09:08:35.666Z,31.75
2023-04-09T09:11:05.647Z,31.76
2023-04-09T09:13:35.267Z,31.73
2023-04-09T09:16:17.323Z,31.78
2023-04-09T09:18:47.356Z,31.53
2023-04-09T09:21:19.012Z,31.13
2023-04-09T09:23:49.539Z,30.88
2023-04-09T09:26:28.648Z,30.82
2023-04-09T09:29:00.279Z,30.75
2023-04-09T09:31:29.724Z,30.58
2023-04-09T09:34:02.501Z,31.00
2023-04-09T09:36:34.301Z,30.97
2023-04-09T09:39:11.373Z,31.07
2023-04-09T09:41:44.939Z,31.06
2023-04-09T09:44:31.890Z,31.16
2023-04-09T09:47:05.084Z,30.80
2023-04-09T09:49:34.326Z,30.88
2023-04-09T09:52:09.045Z,30.82
2023-04-09T09:54:49.386Z,30.85
2023-04-09T09:57:21.637Z,31.02
2023-04-09T10:00:02.741Z,30.87
2023-04-09T10:02:55.932Z,30.71
2023-04-09T10:05:28.453Z,30.71
2023-04-09T10:08:02.252Z,30.52
2023-04-09T10:10:53.843Z,30.45
2023-04-09T10:13:45.525Z,30.28
2023-04-09T10:16:15.945Z,30.21
2023-04-09T10:18:46.143Z,30.46
2023-04-09T10:21:28.712Z,30.71
2023-04-09T10:24:00.000Z,30.87
2023-04-09T10:26:31.717Z,30.65
2023-04-09T10:29:16.235Z,30.56
2023-04-09T10:32:08.196Z,30.73
2023-04-09T10:34:41.277Z,30.77
2023-04-09T10:37:15.749Z,30.60
2023-04-09T10:39:50.922Z,30.37
2023-04-09T10:42:25.846Z,30.18
2023-04-09T10:45:24.759Z,30.07
2023-04-09T10:47:55.620Z,29.92
2023-04-09T10:50:30.345Z,29.88
2023-04-09T10:53:02.115Z,29.78
2023-04-09T10:55:38.495Z,29.62
2023-04-09T10:58:12.216Z,29.66
2023-04-09T11:00:45.247Z,29.59
2023-04-09T11:03:30.010Z,29.56
2023-04-09T11:06:10.750Z,29.72
2023-04-09T11:08:42.706Z,29.43
2023-04-09T11:11:12.905Z,29.68
2023-04-09T11:13:44.179Z,29.72
2023-04-09T11:16:24.330Z,29.71
2023-04-09T11:18:57.226Z,29.63
2023-04-09T11:21:30.254Z,29.62
2023-04-09T11:23:59.467Z,29.71
2023-04-09T11:26:37.874Z,29.72
2023-04-09T11:29:09.551Z,29.76
2023-04-09T11:31:39.643Z,29.86
2023-04-09T11:34:13.517Z,29.77
2023-04-09T11:36:43.614Z,29.68
2023-04-09T11:39:13.437Z,29.61
2023-04-09T11:41:43.235Z,29.62
2023-04-09T11:44:12.899Z,29.56
2023-04-09T11:46:43.520Z,29.41
2023-04-09T11:49:15.020Z,29.27
2023-04-09T11:51:45.328Z,29.20
2023-04-09T11:54:15.396Z,29.09
2023-04-09T11:56:44.794Z,29.02
2023-04-09T11:59:16.940Z,28.94
2023-04-09T12:01:52.310Z,28.88
2023-04-09T12:04:23.098Z,28.80
2023-04-09T12:06:53.225Z,28.71
2023-04-09T12:09:24.350Z,28.77
2023-04-09T12:11:53.760Z,28.71
2023-04-09T12:14:24.211Z,28.61
2023-04-09T12:16:54.409Z,28.59
2023-04-09T12:19:29.096Z,28.51
2023-04-09T12:21:59.781Z,28.49
2023-04-09T12:24:29.987Z,28.35
2023-04-09T12:27:00.396Z,28.27
2023-04-09T12:29:30.945Z,28.14
2023-04-09T12:32:01.824Z,27.98
2023-04-09T12:34:32.152Z,27.90
2023-04-09T12:37:01.841Z,27.86
2023-04-09T12:39:34.308Z,27.84
2023-04-09T12:42:03.925Z,27.81
2023-04-09T12:44:34.297Z,27.94
2023-04-09T12:47:04.142Z,27.80
2023-04-09T12:49:34.078Z,27.67
2023-04-09T12:52:04.139Z,27.56
2023-04-09T12:54:33.278Z,27.51
2023-04-09T12:57:02.751Z,27.37
2023-04-09T12:59:32.072Z,27.22
2023-04-09T13:02:02.156Z,27.09
2023-04-09T13:04:32.219Z,27.01
2023-04-09T13:07:02.158Z,26.88
2023-04-09T13:09:31.493Z,26.75
2023-04-09T13:12:00.945Z,26.65
2023-04-09T13:14:30.227Z,26.55
2023-04-09T13:17:00.021Z,26.45
2023-04-09T13:19:29.575Z,26.36
2023-04-09T13:21:58.691Z,26.25
2023-04-09T13:24:28.663Z,26.17
2023-04-09T13:26:59.360Z,26.09
2023-04-09T13:29:30.602Z,26.02
2023-04-09T13:32:02.830Z,25.98
2023-04-09T13:34:32.615Z,25.89
2023-04-09T13:37:02.093Z,25.85
2023-04-09T13:39:32.548Z,25.77
2023-04-09T13:42:09.963Z,25.66
2023-04-09T13:44:45.706Z,25.57
2023-04-09T13:47:17.359Z,25.51
2023-04-09T13:49:47.095Z,25.49
2023-04-09T13:52:16.494Z,25.44
2023-04-09T13:54:45.958Z,25.40
2023-04-09T13:57:15.261Z,25.36
2023-04-09T13:59:45.240Z,25.30
2023-04-09T14:02:14.750Z,25.21
2023-04-09T14:04:45.185Z,25.17
2023-04-09T14:07:14.514Z,25.10
2023-04-09T14:09:45.198Z,25.03
2023-04-09T14:12:14.501Z,24.99
2023-04-09T14:14:43.612Z,24.97
2023-04-09T14:17:13.500Z,24.92
2023-04-09T14:19:42.813Z,24.87
2023-04-09T14:22:12.835Z,24.83
2023-04-09T14:24:42.336Z,24.78
2023-04-09T14:27:11.685Z,24.74
2023-04-09T14:29:44.271Z,24.70
2023-04-09T14:32:17.025Z,24.65
2023-04-09T14:34:46.543Z,24.59
2023-04-09T14:37:15.776Z,24.58
2023-04-09T14:39:45.241Z,24.55
2023-04-09T14:42:15.412Z,24.52
2023-04-09T14:44:45.339Z,24.47
2023-04-09T14:47:14.819Z,24.44
2023-04-09T14:49:45.068Z,24.39
2023-04-09T14:52:14.225Z,24.36
2023-04-09T14:54:43.945Z,24.36
2023-04-09T14:57:13.343Z,24.34
2023-04-09T14:59:42.516Z,24.35
2023-04-09T15:02:12.937Z,24.34
2023-04-09T15:04:43.094Z,24.33
2023-04-09T15:07:12.470Z,24.28
2023-04-09T15:09:41.987Z,24.32
2023-04-09T15:12:11.588Z,24.32
2023-04-09T15:14:41.137Z,24.34
2023-04-09T15:17:15.754Z,24.32
2023-04-09T15:19:45.524Z,24.36
2023-04-09T15:22:14.977Z,24.35
2023-04-09T15:24:44.107Z,24.33
2023-04-09T15:27:13.541Z,24.31
2023-04-09T15:29:42.922Z,24.28
2023-04-09T15:32:13.003Z,24.20
2023-04-09T15:34:42.382Z,24.22
2023-04-09T15:37:12.151Z,24.21
2023-04-09T15:39:41.774Z,24.25
2023-04-09T15:42:12.246Z,24.23
2023-04-09T15:44:44.300Z,24.20
2023-04-09T15:47:14.085Z,24.20
2023-04-09T15:49:44.295Z,24.11
2023-04-09T15:52:13.802Z,24.17
2023-04-09T15:54:42.982Z,24.10
2023-04-09T15:57:12.376Z,24.08
2023-04-09T15:59:41.661Z,24.03
2023-04-09T16:02:11.386Z,23.96
2023-04-09T16:04:40.784Z,24.03
2023-04-09T16:07:12.268Z,24.11
2023-04-09T16:09:42.775Z,24.17
2023-04-09T16:12:12.649Z,24.14
2023-04-09T16:14:42.226Z,24.11
2023-04-09T16:17:11.945Z,24.06
2023-04-09T16:19:43.184Z,24.06
2023-04-09T16:22:12.832Z,24.08
2023-04-09T16:24:42.218Z,24.09
2023-04-09T16:27:12.299Z,24.06
2023-04-09T16:29:42.162Z,24.15
2023-04-09T16:32:12.292Z,24.17
2023-04-09T16:34:42.264Z,24.05
2023-04-09T16:37:12.365Z,24.02
2023-04-09T16:39:41.762Z,24.01
2023-04-09T16:42:12.320Z,24.01
2023-04-09T16:44:41.701Z,24.01
2023-04-09T16:47:11.420Z,24.03
2023-04-09T16:49:40.663Z,23.94
2023-04-09T16:52:10.844Z,23.95
2023-04-09T16:54:40.101Z,23.92
2023-04-09T16:57:09.568Z,23.88
2023-04-09T16:59:39.025Z,23.85
2023-04-09T17:02:08.740Z,23.81
2023-04-09T17:04:39.314Z,23.79
2023-04-09T17:07:09.153Z,23.72
2023-04-09T17:09:38.778Z,23.70
2023-04-09T17:12:07.874Z,23.63
2023-04-09T17:14:39.567Z,23.61
2023-04-09T17:17:09.638Z,23.61
2023-04-09T17:19:40.767Z,23.61
2023-04-09T17:22:12.060Z,23.59
2023-04-09T17:24:41.488Z,23.61
2023-04-09T17:27:12.060Z,23.59
2023-04-09T17:29:42.120Z,23.53
2023-04-09T17:32:12.036Z,23.53
2023-04-09T17:34:42.562Z,23.51
2023-04-09T17:37:12.396Z,23.46
2023-04-09T17:39:42.858Z,23.43
2023-04-09T17:42:13.202Z,23.47
2023-04-09T17:44:45.189Z,23.47
2023-04-09T17:47:14.760Z,23.44
2023-04-09T17:49:44.008Z,23.41
2023-04-09T17:52:14.421Z,23.41
2023-04-09T17:54:45.768Z,23.35
2023-04-09T17:57:15.622Z,23.30
2023-04-09T17:59:45.763Z,23.32
2023-04-09T18:02:15.981Z,23.29
2023-04-09T18:04:45.835Z,23.25
2023-04-09T18:07:16.219Z,23.28
2023-04-09T18:09:46.360Z,23.24
2023-04-09T18:12:16.092Z,23.10
2023-04-09T18:14:45.307Z,23.08
2023-04-09T18:17:16.276Z,23.03
2023-04-09T18:19:47.030Z,23.08
2023-04-09T18:22:17.686Z,23.06
2023-04-09T18:24:47.852Z,23.05
2023-04-09T18:27:18.832Z,22.96
2023-04-09T18:29:50.354Z,22.85
2023-04-09T18:32:20.721Z,22.77
2023-04-09T18:34:50.439Z,22.89
2023-04-09T18:37:21.382Z,22.82
2023-04-09T18:39:51.091Z,22.84
2023-04-09T18:42:20.389Z,22.79
2023-04-09T18:44:49.972Z,22.70
2023-04-09T18:47:19.339Z,22.74
2023-04-09T18:49:48.727Z,22.66
2023-04-09T18:52:18.078Z,22.61
2023-04-09T18:54:49.274Z,22.65
2023-04-09T18:57:18.927Z,22.61
2023-04-09T18:59:49.349Z,22.54
2023-04-09T19:02:19.026Z,22.59
2023-04-09T19:04:48.896Z,22.54
2023-04-09T19:07:21.563Z,22.48
2023-04-09T19:09:52.077Z,22.49
2023-04-09T19:12:21.533Z,22.53
2023-04-09T19:14:51.168Z,22.51
2023-04-09T19:17:20.551Z,22.41
2023-04-09T19:19:50.121Z,22.40
2023-04-09T19:22:19.619Z,22.43
2023-04-09T19:24:50.559Z,22.37
2023-04-09T19:27:20.540Z,22.33
2023-04-09T19:29:50.193Z,22.35
2023-04-09T19:32:19.514Z,22.32
2023-04-09T19:34:50.026Z,22.33
2023-04-09T19:37:26.613Z,22.28
2023-04-09T19:39:57.077Z,22.28
2023-04-09T19:42:29.668Z,22.28
2023-04-09T19:45:00.086Z,22.28
2023-04-09T19:47:30.229Z,22.29
2023-04-09T19:49:59.540Z,22.32
2023-04-09T19:52:29.727Z,22.26
2023-04-09T19:55:00.028Z,22.21
2023-04-09T19:57:29.511Z,22.20
2023-04-09T19:59:58.864Z,22.18
2023-04-09T20:02:29.469Z,22.11
2023-04-09T20:04:59.300Z,22.15
2023-04-09T20:07:29.241Z,22.13
2023-04-09T20:09:58.777Z,22.09
2023-04-09T20:12:31.373Z,22.07
2023-04-09T20:15:03.862Z,22.03
2023-04-09T20:17:33.997Z,22.01
2023-04-09T20:20:03.541Z,21.99
2023-04-09T20:22:33.399Z,22.02
2023-04-09T20:25:03.398Z,22.01
2023-04-09T20:27:33.157Z,21.99
2023-04-09T20:30:03.236Z,22.00
2023-04-09T20:32:33.444Z,21.98
2023-04-09T20:35:03.204Z,22.01
2023-04-09T20:37:32.852Z,22.01
2023-04-09T20:40:03.338Z,22.02
2023-04-09T20:42:32.611Z,21.99
2023-04-09T20:45:02.534Z,21.97
2023-04-09T20:47:32.261Z,21.94
2023-04-09T20:50:02.435Z,21.92
2023-04-09T20:52:31.729Z,21.89
2023-04-09T20:55:02.103Z,21.90
2023-04-09T20:57:31.869Z,21.86
2023-04-09T21:00:01.289Z,21.82
2023-04-09T21:02:30.632Z,21.80
2023-04-09T21:05:08.302Z,21.81
2023-04-09T21:07:38.271Z,21.79
2023-04-09T21:10:08.496Z,21.67
2023-04-09T21:12:37.881Z,21.64
2023-04-09T21:15:08.757Z,21.64
2023-04-09T21:17:38.848Z,21.63
2023-04-09T21:20:09.891Z,21.63
2023-04-09T21:22:39.320Z,21.61
2023-04-09T21:25:09.076Z,21.60
2023-04-09T21:27:38.305Z,21.57
2023-04-09T21:30:08.444Z,21.56
2023-04-09T21:32:38.309Z,21.50
2023-04-09T21:35:08.097Z,21.48
2023-04-09T21:37:39.512Z,21.41
2023-04-09T21:40:10.099Z,21.36
2023-04-09T21:42:39.682Z,21.38
2023-04-09T21:45:09.121Z,21.38
2023-04-09T21:47:39.192Z,21.37
2023-04-09T21:50:10.433Z,21.35
2023-04-09T21:52:39.996Z,21.33
2023-04-09T21:55:11.315Z,21.29
2023-04-09T21:57:40.795Z,21.29
2023-04-09T22:00:12.011Z,21.29
2023-04-09T22:02:41.612Z,21.28
2023-04-09T22:05:12.127Z,21.26
2023-04-09T22:07:43.636Z,21.23
2023-04-09T22:10:13.233Z,21.23
2023-04-09T22:12:43.343Z,21.30
2023-04-09T22:15:13.505Z,21.29
2023-04-09T22:17:43.067Z,21.27
2023-04-09T22:20:12.334Z,21.26
2023-04-09T22:22:43.445Z,21.24
2023-04-09T22:25:13.451Z,21.24
2023-04-09T22:27:44.689Z,21.23
2023-04-09T22:30:14.898Z,21.18
2023-04-09T22:32:44.357Z,21.12
2023-04-09T22:35:18.963Z,21.10
2023-04-09T22:37:48.674Z,21.13
2023-04-09T22:40:18.202Z,21.12
2023-04-09T22:42:50.463Z,21.13
2023-04-09T22:45:20.489Z,21.09
2023-04-09T22:47:49.739Z,21.02
2023-04-09T22:50:19.605Z,21.01
2023-04-09T22:52:49.851Z,21.03
2023-04-09T22:55:19.840Z,21.02
2023-04-09T22:57:49.836Z,21.03
2023-04-09T23:00:19.460Z,21.01
2023-04-09T23:02:48.915Z,21.02
2023-04-09T23:05:19.141Z,20.91
2023-04-09T23:07:49.175Z,20.85
2023-04-09T23:10:18.727Z,20.83
2023-04-09T23:12:48.214Z,20.85
2023-04-09T23:15:17.688Z,20.85
2023-04-09T23:17:46.985Z,20.80
2023-04-09T23:20:16.760Z,20.87
2023-04-09T23:22:51.321Z,20.88
2023-04-09T23:25:21.463Z,20.77
2023-04-09T23:27:51.498Z,20.64
2023-04-09T23:30:22.865Z,20.63
2023-04-09T23:32:57.451Z,20.66
2023-04-09T23:35:27.235Z,20.62
2023-04-09T23:37:57.253Z,20.74
2023-04-09T23:40:27.053Z,20.85
2023-04-09T23:42:57.029Z,20.82
2023-04-09T23:45:26.494Z,20.82
2023-04-09T23:47:55.946Z,20.83
2023-04-09T23:50:25.929Z,20.85
2023-04-09T23:53:00.693Z,20.89
2023-04-09T23:55:30.343Z,20.75
2023-04-09T23:57:59.568Z,20.75
